FFT3741 KEYW-KFLL
Flight info
| Callsign | FFT3741 |
|---|---|
| Flight time | 0h 40m |
| Altitude | 15000 |
| Route | BUFTT1 BUFTT PYREX BHHIA3 |
| Aircraft | A20N/M-SDE2E3FGHIRWXY/LB1 |
Departure
| Time | 2026-05-03 22:57 |
|---|---|
| Airport | Key West International Airport (KEYW) |
Arrival
| Time | 2026-05-03 23:38 |
|---|---|
| Airport | Fort Lauderdale Hollywood International Airport (KFLL) |
| Time | Latitude | Longitude | Altitude | Speed | Heading |
|---|---|---|---|---|---|
| 2026-05-03 22:45 | 24.55475 | -81.75418 | 20 ft | 0 kts | 227° |
| 2026-05-03 22:46 | 24.55475 | -81.75417 | 20 ft | 0 kts | 227° |
| 2026-05-03 22:52 | 24.55474 | -81.75419 | 20 ft | 2 kts | 227° |
| 2026-05-03 22:52 | 24.55479 | -81.75442 | 21 ft | 6 kts | 318° |
| 2026-05-03 22:52 | 24.55526 | -81.75471 | 20 ft | 8 kts | 284° |
| 2026-05-03 22:53 | 24.55530 | -81.75549 | 20 ft | 13 kts | 269° |
| 2026-05-03 22:53 | 24.55528 | -81.75658 | 20 ft | 16 kts | 269° |
| 2026-05-03 22:53 | 24.55529 | -81.75789 | 19 ft | 19 kts | 270° |
| 2026-05-03 22:53 | 24.55529 | -81.75950 | 15 ft | 23 kts | 270° |
| 2026-05-03 22:54 | 24.55532 | -81.76144 | 13 ft | 27 kts | 272° |
| 2026-05-03 22:54 | 24.55531 | -81.76310 | 12 ft | 14 kts | 261° |
| 2026-05-03 22:54 | 24.55522 | -81.76424 | 12 ft | 17 kts | 268° |
| 2026-05-03 22:54 | 24.55518 | -81.76555 | 11 ft | 4 kts | 270° |
| 2026-05-03 22:55 | 24.55518 | -81.76564 | 12 ft | 3 kts | 270° |
| 2026-05-03 22:55 | 24.55518 | -81.76596 | 12 ft | 5 kts | 270° |
| 2026-05-03 22:55 | 24.55519 | -81.76611 | 12 ft | 6 kts | 270° |
| 2026-05-03 22:56 | 24.55605 | -81.76642 | 13 ft | 4 kts | 64° |
| 2026-05-03 22:56 | 24.55604 | -81.76619 | 13 ft | 0 kts | 90° |
| 2026-05-03 22:56 | 24.55605 | -81.76554 | 13 ft | 34 kts | 89° |
| 2026-05-03 22:57 | 24.55615 | -81.75949 | 16 ft | 119 kts | 90° |
| 2026-05-03 22:57 | 24.55613 | -81.74858 | 404 ft | 148 kts | 85° |
| 2026-05-03 22:57 | 24.55847 | -81.73779 | 1158 ft | 156 kts | 53° |
| 2026-05-03 22:57 | 24.56738 | -81.73072 | 1833 ft | 167 kts | 15° |
| 2026-05-03 22:58 | 24.57954 | -81.72855 | 2326 ft | 188 kts | 360° |
| 2026-05-03 22:58 | 24.59334 | -81.72845 | 2811 ft | 209 kts | 355° |
| 2026-05-03 22:58 | 24.60879 | -81.72891 | 3272 ft | 234 kts | 355° |
| 2026-05-03 22:58 | 24.62586 | -81.72859 | 3867 ft | 256 kts | 359° |
| 2026-05-03 22:59 | 24.64446 | -81.72712 | 4465 ft | 277 kts | 2° |
| 2026-05-03 22:59 | 24.66378 | -81.72504 | 4867 ft | 283 kts | 3° |
| 2026-05-03 22:59 | 24.68337 | -81.72279 | 4994 ft | 284 kts | 3° |
| 2026-05-03 22:59 | 24.70325 | -81.72049 | 5019 ft | 286 kts | 5° |
| 2026-05-03 23:00 | 24.72227 | -81.71408 | 4969 ft | 290 kts | 28° |
| 2026-05-03 23:00 | 24.73783 | -81.69983 | 5105 ft | 296 kts | 46° |
| 2026-05-03 23:00 | 24.75191 | -81.68329 | 5742 ft | 296 kts | 46° |
| 2026-05-03 23:00 | 24.76609 | -81.66668 | 6719 ft | 298 kts | 46° |
| 2026-05-03 23:01 | 24.78030 | -81.64997 | 7677 ft | 300 kts | 45° |
| 2026-05-03 23:01 | 24.79450 | -81.63332 | 8524 ft | 305 kts | 45° |
| 2026-05-03 23:01 | 24.80910 | -81.61624 | 9462 ft | 307 kts | 45° |
| 2026-05-03 23:01 | 24.82386 | -81.59905 | 10312 ft | 312 kts | 43° |
| 2026-05-03 23:02 | 24.84094 | -81.58317 | 10665 ft | 332 kts | 31° |
| 2026-05-03 23:02 | 24.86137 | -81.56925 | 10929 ft | 354 kts | 28° |
| 2026-05-03 23:02 | 24.88279 | -81.55483 | 11538 ft | 363 kts | 29° |
| 2026-05-03 23:02 | 24.90417 | -81.54031 | 12288 ft | 368 kts | 29° |
| 2026-05-03 23:03 | 24.92617 | -81.52529 | 13036 ft | 374 kts | 29° |
| 2026-05-03 23:03 | 24.94852 | -81.51000 | 13770 ft | 379 kts | 29° |
| 2026-05-03 23:03 | 24.97085 | -81.49472 | 14395 ft | 384 kts | 29° |
| 2026-05-03 23:03 | 24.99381 | -81.47899 | 14829 ft | 389 kts | 29° |
| 2026-05-03 23:04 | 25.01685 | -81.46320 | 14967 ft | 390 kts | 29° |
| 2026-05-03 23:04 | 25.03994 | -81.44737 | 15011 ft | 390 kts | 29° |
| 2026-05-03 23:04 | 25.06305 | -81.43151 | 15014 ft | 390 kts | 29° |
| 2026-05-03 23:04 | 25.08583 | -81.41589 | 15027 ft | 390 kts | 29° |
| 2026-05-03 23:05 | 25.10907 | -81.39994 | 15014 ft | 392 kts | 29° |
| 2026-05-03 23:05 | 25.13221 | -81.38405 | 15013 ft | 391 kts | 29° |
| 2026-05-03 23:05 | 25.15537 | -81.36815 | 15014 ft | 392 kts | 29° |
| 2026-05-03 23:05 | 25.17858 | -81.35220 | 15014 ft | 391 kts | 29° |
| 2026-05-03 23:06 | 25.20153 | -81.33642 | 15014 ft | 392 kts | 29° |
| 2026-05-03 23:06 | 25.22444 | -81.32002 | 15014 ft | 393 kts | 34° |
| 2026-05-03 23:06 | 25.24575 | -81.30090 | 15014 ft | 394 kts | 37° |
| 2026-05-03 23:06 | 25.26687 | -81.28151 | 15014 ft | 394 kts | 37° |
| 2026-05-03 23:07 | 25.28801 | -81.26217 | 15014 ft | 395 kts | 37° |
| 2026-05-03 23:07 | 25.30885 | -81.24312 | 15014 ft | 394 kts | 37° |
| 2026-05-03 23:07 | 25.33001 | -81.22377 | 15015 ft | 395 kts | 37° |
| 2026-05-03 23:07 | 25.35125 | -81.20434 | 15014 ft | 394 kts | 37° |
| 2026-05-03 23:08 | 25.37240 | -81.18497 | 15009 ft | 395 kts | 37° |
| 2026-05-03 23:08 | 25.39363 | -81.16551 | 14838 ft | 397 kts | 37° |
| 2026-05-03 23:08 | 25.41496 | -81.14595 | 14373 ft | 400 kts | 37° |
| 2026-05-03 23:08 | 25.43654 | -81.12617 | 13768 ft | 401 kts | 37° |
| 2026-05-03 23:09 | 25.45772 | -81.10674 | 13228 ft | 397 kts | 37° |
| 2026-05-03 23:09 | 25.47889 | -81.08729 | 12688 ft | 393 kts | 37° |
| 2026-05-03 23:09 | 25.49985 | -81.06803 | 12173 ft | 389 kts | 37° |
| 2026-05-03 23:09 | 25.52056 | -81.04899 | 11646 ft | 385 kts | 37° |
| 2026-05-03 23:10 | 25.54112 | -81.03009 | 11122 ft | 381 kts | 37° |
| 2026-05-03 23:10 | 25.56143 | -81.01141 | 10593 ft | 378 kts | 37° |
| 2026-05-03 23:10 | 25.58141 | -80.99302 | 10388 ft | 365 kts | 37° |
| 2026-05-03 23:10 | 25.60034 | -80.97557 | 10249 ft | 351 kts | 37° |
| 2026-05-03 23:11 | 25.62047 | -80.96156 | 10125 ft | 332 kts | 19° |
| 2026-05-03 23:11 | 25.64213 | -80.95512 | 10006 ft | 312 kts | 2° |
| 2026-05-03 23:11 | 25.66350 | -80.95327 | 9690 ft | 305 kts | 360° |
| 2026-05-03 23:11 | 25.68440 | -80.95158 | 9286 ft | 304 kts | 360° |
| 2026-05-03 23:12 | 25.70543 | -80.94986 | 8860 ft | 303 kts | 0° |
| 2026-05-03 23:12 | 25.72659 | -80.94801 | 8463 ft | 310 kts | 0° |
| 2026-05-03 23:12 | 25.74810 | -80.94624 | 8271 ft | 305 kts | 0° |
| 2026-05-03 23:12 | 25.76896 | -80.94452 | 8063 ft | 297 kts | 360° |
| 2026-05-03 23:13 | 25.78955 | -80.94284 | 7645 ft | 297 kts | 360° |
| 2026-05-03 23:13 | 25.80987 | -80.94118 | 7263 ft | 295 kts | 0° |
| 2026-05-03 23:13 | 25.83014 | -80.93949 | 7056 ft | 287 kts | 0° |
| 2026-05-03 23:13 | 25.85002 | -80.93782 | 6999 ft | 289 kts | 0° |
| 2026-05-03 23:14 | 25.87005 | -80.93514 | 7003 ft | 292 kts | 9° |
| 2026-05-03 23:14 | 25.88930 | -80.92755 | 7003 ft | 297 kts | 24° |
| 2026-05-03 23:14 | 25.90747 | -80.91633 | 7001 ft | 297 kts | 26° |
| 2026-05-03 23:14 | 25.92550 | -80.90515 | 7002 ft | 296 kts | 26° |
| 2026-05-03 23:15 | 25.94329 | -80.89422 | 7005 ft | 295 kts | 26° |
| 2026-05-03 23:15 | 25.96131 | -80.88319 | 6999 ft | 296 kts | 26° |
| 2026-05-03 23:15 | 25.97936 | -80.87214 | 7011 ft | 295 kts | 25° |
| 2026-05-03 23:15 | 25.99732 | -80.86091 | 7005 ft | 296 kts | 30° |
| 2026-05-03 23:16 | 26.01183 | -80.84468 | 7009 ft | 301 kts | 57° |
| 2026-05-03 23:16 | 26.01937 | -80.82295 | 7009 ft | 304 kts | 77° |
| 2026-05-03 23:16 | 26.02303 | -80.79979 | 7008 ft | 303 kts | 82° |
| 2026-05-03 23:16 | 26.02580 | -80.77669 | 7005 ft | 297 kts | 82° |
| 2026-05-03 23:17 | 26.02856 | -80.75462 | 7008 ft | 281 kts | 82° |
| 2026-05-03 23:17 | 26.03142 | -80.73393 | 7007 ft | 266 kts | 81° |
| 2026-05-03 23:17 | 26.03447 | -80.71340 | 7011 ft | 272 kts | 80° |
| 2026-05-03 23:17 | 26.03769 | -80.69263 | 7010 ft | 270 kts | 80° |
| 2026-05-03 23:18 | 26.04095 | -80.67205 | 7011 ft | 270 kts | 80° |
| 2026-05-03 23:18 | 26.04418 | -80.65173 | 7011 ft | 271 kts | 80° |
| 2026-05-03 23:18 | 26.04747 | -80.63107 | 7015 ft | 272 kts | 79° |
| 2026-05-03 23:18 | 26.05079 | -80.61010 | 7011 ft | 273 kts | 80° |
| 2026-05-03 23:19 | 26.05403 | -80.58959 | 7012 ft | 268 kts | 81° |
| 2026-05-03 23:19 | 26.05719 | -80.56901 | 7010 ft | 270 kts | 80° |
| 2026-05-03 23:19 | 26.06047 | -80.54842 | 7011 ft | 271 kts | 79° |
| 2026-05-03 23:19 | 26.06380 | -80.52771 | 7002 ft | 269 kts | 80° |
| 2026-05-03 23:20 | 26.06697 | -80.50729 | 6991 ft | 266 kts | 83° |
| 2026-05-03 23:20 | 26.06760 | -80.48683 | 6798 ft | 264 kts | 91° |
| 2026-05-03 23:20 | 26.06745 | -80.46631 | 6505 ft | 264 kts | 91° |
| 2026-05-03 23:20 | 26.06738 | -80.44618 | 6258 ft | 264 kts | 91° |
| 2026-05-03 23:21 | 26.06728 | -80.42594 | 6210 ft | 268 kts | 91° |
| 2026-05-03 23:21 | 26.06716 | -80.40528 | 6670 ft | 269 kts | 92° |
| 2026-05-03 23:21 | 26.06690 | -80.38439 | 6912 ft | 267 kts | 96° |
| 2026-05-03 23:21 | 26.06437 | -80.37116 | 6956 ft | 263 kts | 115° |
| 2026-05-03 23:22 | 26.03834 | -80.34624 | 6999 ft | 247 kts | 171° |
| 2026-05-03 23:22 | 26.02144 | -80.34249 | 6992 ft | 246 kts | 181° |
| 2026-05-03 23:22 | 26.00530 | -80.34557 | 6994 ft | 237 kts | 210° |
| 2026-05-03 23:23 | 25.99316 | -80.35711 | 6850 ft | 228 kts | 239° |
| 2026-05-03 23:23 | 25.98714 | -80.37335 | 6542 ft | 228 kts | 253° |
| 2026-05-03 23:23 | 25.98237 | -80.39002 | 6233 ft | 228 kts | 253° |
| 2026-05-03 23:23 | 25.97758 | -80.40685 | 5886 ft | 228 kts | 253° |
| 2026-05-03 23:24 | 25.97281 | -80.42360 | 5559 ft | 228 kts | 253° |
| 2026-05-03 23:24 | 25.96802 | -80.44041 | 5267 ft | 226 kts | 253° |
| 2026-05-03 23:24 | 25.96422 | -80.45687 | 5138 ft | 217 kts | 261° |
| 2026-05-03 23:24 | 25.96227 | -80.47346 | 4876 ft | 215 kts | 263° |
| 2026-05-03 23:25 | 25.96037 | -80.49005 | 4554 ft | 216 kts | 263° |
| 2026-05-03 23:25 | 25.95847 | -80.50672 | 4254 ft | 217 kts | 263° |
| 2026-05-03 23:25 | 25.95668 | -80.52336 | 4043 ft | 215 kts | 263° |
| 2026-05-03 23:25 | 25.95486 | -80.53973 | 4011 ft | 217 kts | 263° |
| 2026-05-03 23:26 | 25.95292 | -80.55644 | 3999 ft | 216 kts | 263° |
| 2026-05-03 23:26 | 25.95090 | -80.57317 | 4003 ft | 220 kts | 263° |
| 2026-05-03 23:26 | 25.94899 | -80.58969 | 3999 ft | 213 kts | 263° |
| 2026-05-03 23:26 | 25.94726 | -80.60617 | 4003 ft | 215 kts | 263° |
| 2026-05-03 23:27 | 25.94547 | -80.62268 | 3998 ft | 214 kts | 263° |
| 2026-05-03 23:27 | 25.94399 | -80.63875 | 3999 ft | 212 kts | 271° |
| 2026-05-03 23:27 | 25.94850 | -80.65427 | 4002 ft | 216 kts | 304° |
| 2026-05-03 23:27 | 25.96045 | -80.66455 | 4009 ft | 223 kts | 339° |
| 2026-05-03 23:28 | 25.97577 | -80.66732 | 4007 ft | 224 kts | 354° |
| 2026-05-03 23:28 | 25.99125 | -80.66855 | 4007 ft | 225 kts | 354° |
| 2026-05-03 23:28 | 26.00687 | -80.66967 | 4006 ft | 225 kts | 357° |
| 2026-05-03 23:28 | 26.02202 | -80.66546 | 4010 ft | 231 kts | 30° |
| 2026-05-03 23:29 | 26.03312 | -80.65257 | 4011 ft | 234 kts | 60° |
| 2026-05-03 23:29 | 26.04040 | -80.63649 | 4007 ft | 235 kts | 63° |
| 2026-05-03 23:29 | 26.04753 | -80.62018 | 4008 ft | 234 kts | 63° |
| 2026-05-03 23:29 | 26.05469 | -80.60387 | 4007 ft | 234 kts | 63° |
| 2026-05-03 23:30 | 26.06179 | -80.58750 | 4009 ft | 234 kts | 64° |
| 2026-05-03 23:30 | 26.06689 | -80.57034 | 4005 ft | 234 kts | 79° |
| 2026-05-03 23:30 | 26.06845 | -80.55217 | 4013 ft | 238 kts | 88° |
| 2026-05-03 23:30 | 26.06838 | -80.53376 | 3999 ft | 238 kts | 92° |
| 2026-05-03 23:31 | 26.06813 | -80.51572 | 4004 ft | 236 kts | 91° |
| 2026-05-03 23:31 | 26.06798 | -80.49745 | 4001 ft | 236 kts | 91° |
| 2026-05-03 23:31 | 26.06790 | -80.47915 | 4004 ft | 238 kts | 91° |
| 2026-05-03 23:31 | 26.06779 | -80.46071 | 4000 ft | 237 kts | 91° |
| 2026-05-03 23:32 | 26.06768 | -80.44251 | 3997 ft | 230 kts | 91° |
| 2026-05-03 23:32 | 26.06757 | -80.42538 | 4030 ft | 211 kts | 91° |
| 2026-05-03 23:32 | 26.06748 | -80.40962 | 4002 ft | 209 kts | 91° |
| 2026-05-03 23:32 | 26.06737 | -80.39342 | 3963 ft | 208 kts | 91° |
| 2026-05-03 23:33 | 26.06727 | -80.37730 | 3754 ft | 208 kts | 91° |
| 2026-05-03 23:33 | 26.06717 | -80.36135 | 3475 ft | 203 kts | 91° |
| 2026-05-03 23:33 | 26.06708 | -80.34587 | 3212 ft | 198 kts | 90° |
| 2026-05-03 23:33 | 26.06697 | -80.33066 | 2953 ft | 196 kts | 90° |
| 2026-05-03 23:34 | 26.06688 | -80.31547 | 2698 ft | 196 kts | 90° |
| 2026-05-03 23:34 | 26.06679 | -80.30060 | 2443 ft | 191 kts | 90° |
| 2026-05-03 23:34 | 26.06670 | -80.28603 | 2197 ft | 187 kts | 90° |
| 2026-05-03 23:34 | 26.06661 | -80.27141 | 1953 ft | 188 kts | 90° |
| 2026-05-03 23:35 | 26.06652 | -80.25722 | 1706 ft | 180 kts | 89° |
| 2026-05-03 23:35 | 26.06644 | -80.24391 | 1476 ft | 164 kts | 89° |
| 2026-05-03 23:35 | 26.06636 | -80.23181 | 1277 ft | 149 kts | 89° |
| 2026-05-03 23:35 | 26.06630 | -80.22076 | 1094 ft | 141 kts | 89° |
| 2026-05-03 23:36 | 26.06617 | -80.20962 | 924 ft | 143 kts | 89° |
| 2026-05-03 23:36 | 26.06613 | -80.20603 | 853 ft | 142 kts | 88° |
| 2026-05-03 23:36 | 26.06609 | -80.18585 | 520 ft | 140 kts | 86° |
| 2026-05-03 23:37 | 26.06600 | -80.17509 | 360 ft | 140 kts | 88° |
| 2026-05-03 23:37 | 26.06588 | -80.16421 | 176 ft | 141 kts | 87° |
| 2026-05-03 23:37 | 26.06588 | -80.15364 | 23 ft | 133 kts | 87° |
| 2026-05-03 23:37 | 26.06585 | -80.14522 | 41 ft | 77 kts | 91° |
| 2026-05-03 23:38 | 26.06601 | -80.14267 | 50 ft | 20 kts | 59° |
| 2026-05-03 23:38 | 26.06657 | -80.14223 | 52 ft | 11 kts | 355° |
| 2026-05-03 23:38 | 26.06679 | -80.14275 | 49 ft | 8 kts | 276° |
| 2026-05-03 23:38 | 26.06682 | -80.14350 | 48 ft | 12 kts | 269° |
| 2026-05-03 23:39 | 26.06681 | -80.14429 | 46 ft | 5 kts | 269° |
| 2026-05-03 23:39 | 26.06679 | -80.14501 | 43 ft | 12 kts | 268° |
| 2026-05-03 23:39 | 26.06676 | -80.14614 | 37 ft | 9 kts | 270° |
| 2026-05-03 23:39 | 26.06676 | -80.14679 | 31 ft | 4 kts | 270° |
| 2026-05-03 23:40 | 26.06676 | -80.14749 | 32 ft | 14 kts | 271° |
| 2026-05-03 23:40 | 26.06677 | -80.14789 | 26 ft | 0 kts | 271° |
| 2026-05-03 23:42 | 26.06677 | -80.14793 | 25 ft | 3 kts | 272° |
| 2026-05-03 23:42 | 26.06681 | -80.14850 | 19 ft | 11 kts | 280° |
| 2026-05-03 23:43 | 26.06719 | -80.14919 | 17 ft | 11 kts | 337° |
| 2026-05-03 23:43 | 26.06767 | -80.14875 | 15 ft | 10 kts | 86° |
| 2026-05-03 23:43 | 26.06765 | -80.14805 | 15 ft | 8 kts | 90° |
| 2026-05-03 23:43 | 26.06764 | -80.14733 | 15 ft | 10 kts | 91° |
| 2026-05-03 23:44 | 26.06762 | -80.14654 | 15 ft | 10 kts | 92° |
| 2026-05-03 23:44 | 26.06762 | -80.14580 | 15 ft | 9 kts | 86° |
| 2026-05-03 23:44 | 26.06769 | -80.14510 | 15 ft | 10 kts | 84° |
| 2026-05-03 23:44 | 26.06775 | -80.14426 | 15 ft | 11 kts | 86° |
| 2026-05-03 23:45 | 26.06782 | -80.14349 | 15 ft | 9 kts | 58° |
| 2026-05-03 23:45 | 26.06821 | -80.14341 | 16 ft | 4 kts | 1° |
| 2026-05-03 23:45 | 26.06849 | -80.14341 | 15 ft | 4 kts | 360° |
| 2026-05-03 23:45 | 26.06874 | -80.14341 | 15 ft | 3 kts | 0° |
| 2026-05-03 23:46 | 26.06878 | -80.14341 | 15 ft | 1 kts | 360° |